createdAt,value
2018-06-08T00:04:16.749Z,0.0
2018-06-08T00:14:30.909Z,0.0
2018-06-08T00:24:45.504Z,0.0
2018-06-08T00:34:59.498Z,0.0
2018-06-08T00:45:44.271Z,0.0
2018-06-08T00:55:56.489Z,0.0
2018-06-08T01:06:10.716Z,0.0
2018-06-08T01:16:22.349Z,0.0
2018-06-08T01:26:36.249Z,0.0
2018-06-08T01:36:50.791Z,0.0
2018-06-08T01:47:02.956Z,0.0
2018-06-08T01:57:17.161Z,0.0
2018-06-08T02:07:31.215Z,0.0
2018-06-08T02:17:45.305Z,0.0
2018-06-08T02:27:59.721Z,0.0
2018-06-08T02:38:14.412Z,4.0
2018-06-08T02:48:28.070Z,12.0
2018-06-08T02:58:42.666Z,32.0
2018-06-08T03:09:27.556Z,92.0
2018-06-08T03:19:39.269Z,168.0
2018-06-08T03:29:53.319Z,284.0
2018-06-08T03:40:07.516Z,376.0
2018-06-08T03:50:24.411Z,504.0
2018-06-08T04:00:38.266Z,676.0
2018-06-08T04:11:24.178Z,888.0
2018-06-08T04:21:37.917Z,1140.0
2018-06-08T04:31:52.545Z,1540.0
2018-06-08T04:42:06.309Z,1920.0
2018-06-08T04:52:24.330Z,1696.0
2018-06-08T05:02:39.335Z,1852.0
2018-06-08T05:12:54.022Z,2448.0
2018-06-08T05:23:08.249Z,2844.0
2018-06-08T05:33:22.420Z,3428.0
2018-06-08T05:43:34.588Z,3148.0
2018-06-08T05:53:49.072Z,2800.0
2018-06-08T06:04:02.939Z,2992.0
2018-06-08T06:14:17.235Z,3240.0
2018-06-08T06:24:29.794Z,3392.0
2018-06-08T06:34:43.575Z,4648.0
2018-06-08T06:45:28.247Z,6260.0
2018-06-08T06:56:14.360Z,7324.0
2018-06-08T07:06:28.194Z,8820.0
2018-06-08T07:17:14.136Z,8424.0
2018-06-08T07:27:28.210Z,5568.0
2018-06-08T07:37:39.838Z,5420.0
2018-06-08T07:47:54.855Z,5004.0
2018-06-08T07:58:09.265Z,6816.0
2018-06-08T08:08:55.059Z,7916.0
2018-06-08T08:19:09.500Z,10404.0
2018-06-08T08:29:23.700Z,11484.0
2018-06-08T08:39:49.017Z,13536.0
2018-06-08T08:50:02.938Z,11856.0
2018-06-08T09:00:48.869Z,11676.0
2018-06-08T09:11:03.410Z,11600.0
2018-06-08T09:21:17.796Z,17280.0
2018-06-08T09:32:08.260Z,12832.0
2018-06-08T09:42:21.182Z,8100.0
2018-06-08T09:53:05.722Z,7040.0
2018-06-08T10:03:50.758Z,5784.0
2018-06-08T10:14:05.052Z,5836.0
2018-06-08T10:24:19.052Z,5996.0
2018-06-08T10:34:33.649Z,4728.0
2018-06-08T10:45:19.267Z,3552.0
2018-06-08T10:56:10.303Z,4144.0
2018-06-08T11:07:33.016Z,4652.0
2018-06-08T11:17:47.749Z,4964.0
2018-06-08T11:28:34.146Z,6672.0
2018-06-08T11:38:48.622Z,8076.0
2018-06-08T11:49:02.973Z,6480.0
2018-06-08T11:59:17.223Z,5480.0
2018-06-08T12:09:31.924Z,7072.0
2018-06-08T12:19:45.607Z,6140.0
2018-06-08T12:31:19.759Z,3428.0
2018-06-08T12:42:44.989Z,2488.0
2018-06-08T12:53:30.198Z,2652.0
2018-06-08T13:03:46.625Z,2416.0
2018-06-08T13:13:58.786Z,2680.0
2018-06-08T13:24:12.680Z,3304.0
2018-06-08T13:34:59.432Z,2828.0
2018-06-08T13:45:50.286Z,2740.0
2018-06-08T13:56:41.105Z,3636.0
2018-06-08T14:08:01.703Z,6096.0
2018-06-08T14:18:50.029Z,9252.0
2018-06-08T14:29:42.175Z,15124.0
2018-06-08T14:40:55.229Z,19072.0
2018-06-08T15:03:00.382Z,10224.0
2018-06-08T15:45:15.003Z,4412.0
2018-06-08T15:56:34.958Z,5796.0
2018-06-08T16:42:25.862Z,6328.0
2018-06-08T17:08:24.499Z,6252.0
2018-06-08T17:19:11.867Z,3908.0
2018-06-08T17:29:26.466Z,3008.0
2018-06-08T17:39:40.504Z,3124.0
2018-06-08T17:50:25.121Z,2684.0
2018-06-08T18:00:42.352Z,2428.0
2018-06-08T18:10:56.463Z,2012.0
2018-06-08T18:21:10.884Z,1888.0
2018-06-08T18:31:38.023Z,1640.0
2018-06-08T18:42:29.188Z,1456.0
2018-06-08T18:52:53.183Z,1092.0
2018-06-08T19:03:38.874Z,672.0
2018-06-08T19:13:57.582Z,452.0
2018-06-08T19:24:11.857Z,356.0
2018-06-08T19:35:00.065Z,244.0
2018-06-08T19:45:17.449Z,136.0
2018-06-08T19:55:32.199Z,68.0
2018-06-08T20:05:46.312Z,24.0
2018-06-08T20:16:02.055Z,8.0
2018-06-08T20:26:16.180Z,4.0
2018-06-08T20:37:40.536Z,0.0
2018-06-08T20:47:53.749Z,0.0
2018-06-08T20:58:12.166Z,0.0
2018-06-08T21:08:57.608Z,0.0
2018-06-08T21:19:12.558Z,0.0
2018-06-08T21:29:31.047Z,0.0
2018-06-08T21:39:45.415Z,0.0
2018-06-08T21:50:30.301Z,0.0
2018-06-08T22:00:50.666Z,0.0
2018-06-08T22:11:35.590Z,0.0
2018-06-08T22:21:50.031Z,0.0
2018-06-08T22:32:35.504Z,0.0
2018-06-08T22:43:21.617Z,0.0
2018-06-08T22:53:35.721Z,0.0
2018-06-08T23:03:50.246Z,0.0
2018-06-08T23:24:20.364Z,0.0
2018-06-08T23:34:36.382Z,0.0
2018-06-08T23:45:22.667Z,0.0
2018-06-08T23:56:06.932Z,0.0
